• Join FlightAware (Why Join?)
  • Login
  • US Flag 
03:08PM EST


 

Airport Tracker/Info


-or-


 

Live Flight TrackerFlight Track Log ✈ SWA2139 ✈ 22-Apr-2013 ✈ KAUS - KELP

Flight Track Log - Related Links

Times and Time Zones

All times are in EDT time to prevent confusion due to time zone crossing. See the SWA2139 flight status page for this flight to view local times or setup timezone preferences in your user account.

Time Position Orientation Groundspeed Altitude Reporting Facility
EDT Latitude Longitude Course Direction KTS MPH feet Rate Location/Type
08:34AM 30.1681 -97.7508 278° West 243 280 5,700  Level Houston Center
08:35AM 30.2333 -97.8031 325° Northwest 276 318 9,200 2,700 Climbing Houston Center
08:36AM 30.3031 -97.8536 328° Northwest 288 331 11,300 2,580 Climbing Houston Center
08:37AM 30.3406 -97.9522 294° West 349 402 14,500 3,120 Climbing Houston Center
08:38AM 30.4167 -97.9415 270° West  Level FlightAware Approximate
08:38AM 30.3569 -98.0675 279° West 358 412 17,800  Level Houston Center
08:39AM 30.4232 -98.0554 278° West  Level FlightAware Approximate
08:39AM 30.3744 -98.1847 280° West 363 418 20,900  Level Houston Center
08:40AM 30.3917 -98.3067 279° West 377 434 23,500 2,340 Climbing Houston Center
08:41AM 30.4089 -98.4319 279° West 388 447 25,800 2,040 Climbing Houston Center
08:42AM 30.4264 -98.5606 279° West 398 458 27,800 2,160 Climbing Houston Center
08:43AM 30.4456 -98.6922 280° West 408 470 30,300 2,520 Climbing Houston Center
08:44AM 30.4653 -98.8389 279° West 393 452 33,100 2,580 Climbing Houston Center
08:45AM 30.4844 -98.9583 281° West 377 434 35,700 1,380 Climbing Houston Center
08:46AM 30.4989 -99.0731 278° West 359 413 36,000 120 Climbing Houston Center
08:47AM 30.5167 -99.1925 280° West 361 415 36,000  Level Houston Center
08:48AM 30.5317 -99.3067 279° West 360 414 36,000  Level Houston Center
08:49AM 30.5458 -99.4222 278° West 363 418 36,000  Level Houston Center
08:50AM 30.5622 -99.5372 279° West 363 418 36,000  Level Houston Center
08:51AM 30.5775 -99.6522 279° West 365 420 36,000  Level Houston Center
08:52AM 30.5917 -99.7669 278° West 361 415 36,000  Level Houston Center
08:53AM 30.6164 -99.9056 282° West 366 421 36,000  Level Houston Center
08:54AM 30.6400 -100.0192 284° West 365 420 36,000  Level Houston Center
08:55AM 30.6628 -100.1333 283° West 366 421 36,000  Level Houston Center
08:56AM 30.6850 -100.2483 283° West 367 422 36,000  Level Houston Center
08:57AM 30.7086 -100.3628 284° West 366 421 36,000  Level Houston Center
08:58AM 30.7308 -100.4778 283° West 367 422 36,000  Level Houston Center
08:59AM 30.7542 -100.5936 283° West 369 425 36,000  Level Houston Center
09:00AM 30.7819 -100.7303 283° West 365 420 36,000  Level Houston Center
09:01AM 30.8036 -100.8444 282° West 363 418 36,000  Level Houston Center
09:03AM 30.8258 -100.9622 282° West 367 422 36,000  Level Houston Center
09:04AM 30.8489 -101.0781 283° West 369 425 36,000  Level Houston Center
09:05AM 30.8714 -101.1936 283° West 369 425 36,000  Level Houston Center
09:06AM 30.8939 -101.3092 283° West 369 425 36,000  Level Houston Center
09:07AM 30.9186 -101.4522 281° West 371 427 36,000  Level Houston Center
09:08AM 30.9406 -101.5700 282° West 373 429 36,000  Level Houston Center
09:09AM 30.9625 -101.6747 284° West 375 432 36,000  Level Albuquerque Center
09:10AM 30.9844 -101.7931 282° West 374 430 36,000  Level Albuquerque Center
09:11AM 31.0064 -101.9119 282° West 375 432 36,000  Level Albuquerque Center
09:12AM 31.0286 -102.0314 282° West 376 433 36,000  Level Albuquerque Center
09:13AM 31.0506 -102.1500 282° West 376 433 36,000  Level Albuquerque Center
09:14AM 31.0717 -102.2689 282° West 375 432 36,000  Level Albuquerque Center
09:15AM 31.0989 -102.4131 282° West 378 435 36,000  Level Albuquerque Center
09:16AM 31.1208 -102.5336 282° West 379 436 36,000  Level Albuquerque Center
09:17AM 31.1431 -102.6542 282° West 380 437 36,000  Level Albuquerque Center
09:18AM 31.1636 -102.7758 281° West 381 438 36,000  Level Albuquerque Center
09:19AM 31.1858 -102.8961 282° West 380 437 36,000  Level Albuquerque Center
09:20AM 31.2075 -103.0158 282° West 379 436 36,000  Level Albuquerque Center
09:21AM 31.2286 -103.1381 281° West 381 438 36,000  Level Albuquerque Center
09:22AM 31.2508 -103.2622 282° West 381 438 36,000  Level Albuquerque Center
09:23AM 31.2717 -103.3822 282° West 380 437 36,000  Level Albuquerque Center
09:24AM 31.2914 -103.5031 281° West 380 437 36,000  Level Albuquerque Center
09:25AM 31.3136 -103.6242 282° West 381 438 36,000  Level Albuquerque Center
09:26AM 31.3344 -103.7467 281° West 383 441 36,000  Level Albuquerque Center
09:27AM 31.3547 -103.8678 281° West 384 442 36,000  Level Albuquerque Center
09:28AM 31.3744 -103.9894 281° West 383 441 36,000  Level Albuquerque Center
09:29AM 31.3956 -104.1119 281° West 386 444 36,000  Level Albuquerque Center
09:30AM 31.4164 -104.2331 281° West 384 442 36,000  Level Albuquerque Center
09:31AM 31.4375 -104.3553 281° West 384 442 36,000  Level Albuquerque Center
09:32AM 31.4553 -104.4753 280° West 379 436 36,000 -120 Level Albuquerque Center
09:33AM 31.4708 -104.6219 277° West 381 438 35,800 -1,920 Descending Albuquerque Center
09:34AM 31.4828 -104.7428 277° West 377 434 32,200 -3,000 Descending Albuquerque Center
09:35AM 31.4958 -104.8708 277° West 392 451 29,700 -2,460 Descending Albuquerque Center
09:36AM 31.5097 -105.0008 277° West 403 464 27,300 -2,400 Descending Albuquerque Center
09:37AM 31.5228 -105.1256 277° West 394 453 24,900 -2,400 Descending Albuquerque Center
09:38AM 31.5339 -105.2458 276° West 381 438 22,500 -2,280 Descending Albuquerque Center
09:39AM 31.5461 -105.3661 277° West 376 433 20,300 -2,220 Descending Albuquerque Center
09:40AM 31.5575 -105.4797 277° West 357 411 18,100 -2,040 Descending Albuquerque Center
09:41AM 31.5669 -105.5906 276° West 346 398 16,200 -1,980 Descending Albuquerque Center
09:42AM 31.5775 -105.6972 277° West 332 382 14,100 -2,280 Descending Albuquerque Center
09:43AM 31.5956 -105.8197 280° West 321 369 11,600 -1,920 Descending Albuquerque Center
09:44AM 31.6403 -105.9053 302° West 308 354 10,300 -1,380 Descending Albuquerque Center
09:45AM 31.6797 -105.9833 301° West 280 322 8,900 -1,200 Descending Albuquerque Center
09:46AM 31.7167 -106.0561 301° West 260 299 7,900 -960 Descending Albuquerque Center
09:47AM 31.7456 -106.1281 295° West 247 284 7,000 -960 Descending Albuquerque Center
09:47AM 31.7533 -106.1578 287° West 245 282 6,700 -540 Descending Albuquerque Center
09:48AM 31.7692 -106.2031 292° West 246 283 6,500 -240 Descending Albuquerque Center
09:48AM 31.7767 -106.2267 290° West 220 253 6,500 -540 Level Albuquerque Center
09:49AM 31.7881 -106.2608 291° West 190 219 6,000 -720 Descending Albuquerque Center
09:49AM 31.7922 -106.2778 286° West 148 170 5,800 -1,140 Descending Albuquerque Center
09:50AM 31.7978 -106.3061 283° West 147 169 4,900 -1,200 Descending Albuquerque Center
09:50AM 31.7986 -106.3239 273° West 136 157 4,600 -900 Descending Albuquerque Center
09:51AM 31.8014 -106.3611 275° West 145 167 4,000 -840 Descending Albuquerque Center
09:53AM 31.8000 -106.3667 291° West  Level FlightAware Approximate
10:00AM 31.8072 -106.3764 291° West  Level Estimated
10:01AM 31.8072 -106.3764 291° West  Level Estimated
10:02AM 31.8072 -106.3764 291° West  Level Estimated
10:03AM 31.8072 -106.3764 291° West  Level Estimated